Time Latitude Longitude Accuracy (66% radius in meters) Altitude (meters) Speed (km/hour) Bearing (degrees) Battery (%) GPS flag
08:52:04 57.203988 60.118189 0 0 0 0 1 delete
08:52:03 57.203993 60.118182 0 0 0 0 1 delete
08:52:02 57.204002 60.118167 0 0 0 0 1 delete
08:52:01 57.204017 60.118144 0 0 0 0 1 delete
08:52:00 57.204037 60.118113 0 0 0 0 1 delete
08:51:59 57.204056 60.118079 0 0 0 0 1 delete
08:51:58 57.204076 60.118044 0 0 0 0 1 delete
08:51:57 57.204093 60.118013 0 0 0 0 1 delete
08:51:56 57.204108 60.117983 0 0 0 0 1 delete
08:51:55 57.204122 60.117956 0 0 0 0 1 delete
08:51:54 57.204137 60.117929 0 0 0 0 1 delete
08:51:53 57.204154 60.117900 0 0 0 0 1 delete
08:51:52 57.204173 60.117871 0 0 0 0 1 delete
08:51:51 57.204192 60.117843 0 0 0 0 1 delete
08:51:50 57.204212 60.117817 0 0 0 0 1 delete
08:51:49 57.204232 60.117790 0 0 0 0 1 delete
08:51:48 57.204254 60.117763 0 0 0 0 1 delete
08:51:47 57.204279 60.117736 0 0 0 0 1 delete
08:51:46 57.204305 60.117708 0 0 0 0 1 delete
08:51:45 57.204330 60.117676 0 0 0 0 1 delete
08:51:44 57.204354 60.117637 0 0 0 0 1 delete
08:51:43 57.204378 60.117599 0 0 0 0 1 delete
08:51:42 57.204402 60.117565 0 0 0 0 1 delete
08:51:41 57.204427 60.117537 0 0 0 0 1 delete
08:51:40 57.204455 60.117510 0 0 0 0 1 delete
08:51:39 57.204487 60.117483 0 0 0 0 1 delete
08:51:38 57.204522 60.117464 0 0 0 0 1 delete
08:51:37 57.204557 60.117450 0 0 0 0 1 delete
08:51:36 57.204592 60.117439 0 0 0 0 1 delete
08:51:35 57.204629 60.117434 0 0 0 0 1 delete
08:51:34 57.204667 60.117433 0 0 0 0 1 delete
08:51:33 57.204704 60.117436 0 0 0 0 1 delete
08:51:32 57.204738 60.117439 0 0 0 0 1 delete
08:51:31 57.204774 60.117442 0 0 0 0 1 delete
08:51:30 57.204811 60.117450 0 0 0 0 1 delete
08:51:29 57.204849 60.117459 0 0 0 0 1 delete
08:51:28 57.204884 60.117473 0 0 0 0 1 delete
08:51:27 57.204919 60.117489 0 0 0 0 1 delete
08:51:26 57.204955 60.117507 0 0 0 0 1 delete
08:51:25 57.204988 60.117525 0 0 0 0 1 delete
08:51:24 57.205021 60.117535 0 0 0 0 1 delete
08:51:23 57.205052 60.117544 0 0 0 0 1 delete
08:51:22 57.205081 60.117548 0 0 0 0 1 delete
08:51:21 57.205104 60.117556 0 0 0 0 1 delete
08:51:20 57.205122 60.117562 0 0 0 0 1 delete
08:51:19 57.205138 60.117571 0 0 0 0 1 delete
08:51:18 57.205153 60.117581 0 0 0 0 1 delete
08:51:17 57.205167 60.117588 0 0 0 0 1 delete
08:51:16 57.205175 60.117588 0 0 0 0 1 delete
08:51:15 57.205180 60.117573 0 0 0 0 1 delete